sensor_id;sensor_type;location;lat;lon;timestamp;P1;durP1;ratioP1;P2;durP2;ratioP2
3189;SDS011;1606;51.946;10.558;2023-04-09T00:01:27;43.40;;;27.23;;
3189;SDS011;1606;51.946;10.558;2023-04-09T00:03:56;37.77;;;22.00;;
3189;SDS011;1606;51.946;10.558;2023-04-09T00:06:24;36.50;;;23.17;;
3189;SDS011;1606;51.946;10.558;2023-04-09T00:08:52;41.70;;;26.00;;
3189;SDS011;1606;51.946;10.558;2023-04-09T00:11:20;41.13;;;24.47;;
3189;SDS011;1606;51.946;10.558;2023-04-09T00:13:47;39.13;;;23.13;;
3189;SDS011;1606;51.946;10.558;2023-04-09T00:16:15;41.40;;;24.10;;
3189;SDS011;1606;51.946;10.558;2023-04-09T00:18:43;46.93;;;25.47;;
3189;SDS011;1606;51.946;10.558;2023-04-09T00:21:12;41.00;;;25.60;;
3189;SDS011;1606;51.946;10.558;2023-04-09T00:23:41;44.27;;;25.73;;
3189;SDS011;1606;51.946;10.558;2023-04-09T00:26:09;42.47;;;26.90;;
3189;SDS011;1606;51.946;10.558;2023-04-09T00:28:36;41.57;;;26.70;;
3189;SDS011;1606;51.946;10.558;2023-04-09T00:31:04;39.30;;;24.47;;
3189;SDS011;1606;51.946;10.558;2023-04-09T00:33:32;41.87;;;24.90;;
3189;SDS011;1606;51.946;10.558;2023-04-09T00:35:59;42.40;;;24.03;;
3189;SDS011;1606;51.946;10.558;2023-04-09T00:38:29;40.57;;;24.70;;
3189;SDS011;1606;51.946;10.558;2023-04-09T00:40:57;43.73;;;27.73;;
3189;SDS011;1606;51.946;10.558;2023-04-09T00:43:24;41.77;;;26.30;;
3189;SDS011;1606;51.946;10.558;2023-04-09T00:45:53;42.50;;;23.77;;
3189;SDS011;1606;51.946;10.558;2023-04-09T00:48:21;40.90;;;25.87;;
3189;SDS011;1606;51.946;10.558;2023-04-09T00:50:49;44.20;;;28.43;;
3189;SDS011;1606;51.946;10.558;2023-04-09T00:53:17;43.50;;;26.83;;
3189;SDS011;1606;51.946;10.558;2023-04-09T00:55:46;42.03;;;26.17;;
3189;SDS011;1606;51.946;10.558;2023-04-09T00:58:14;44.33;;;24.80;;
3189;SDS011;1606;51.946;10.558;2023-04-09T01:00:45;40.23;;;23.33;;
3189;SDS011;1606;51.946;10.558;2023-04-09T01:03:13;39.80;;;23.67;;
3189;SDS011;1606;51.946;10.558;2023-04-09T01:05:43;35.97;;;22.10;;
3189;SDS011;1606;51.946;10.558;2023-04-09T01:08:18;39.37;;;24.90;;
3189;SDS011;1606;51.946;10.558;2023-04-09T01:10:58;44.47;;;25.20;;
3189;SDS011;1606;51.946;10.558;2023-04-09T01:13:36;42.72;;;25.17;;
3189;SDS011;1606;51.946;10.558;2023-04-09T01:16:08;41.70;;;25.70;;
3189;SDS011;1606;51.946;10.558;2023-04-09T01:18:38;37.80;;;23.63;;
3189;SDS011;1606;51.946;10.558;2023-04-09T01:21:11;35.67;;;22.13;;
3189;SDS011;1606;51.946;10.558;2023-04-09T01:23:44;38.67;;;23.37;;
3189;SDS011;1606;51.946;10.558;2023-04-09T01:26:28;39.03;;;24.17;;
3189;SDS011;1606;51.946;10.558;2023-04-09T01:29:08;40.43;;;23.70;;
3189;SDS011;1606;51.946;10.558;2023-04-09T01:31:38;36.10;;;21.40;;
3189;SDS011;1606;51.946;10.558;2023-04-09T01:34:08;37.40;;;24.03;;
3189;SDS011;1606;51.946;10.558;2023-04-09T01:36:37;35.77;;;22.07;;
3189;SDS011;1606;51.946;10.558;2023-04-09T01:39:06;39.30;;;23.70;;
3189;SDS011;1606;51.946;10.558;2023-04-09T01:41:34;33.70;;;20.33;;
3189;SDS011;1606;51.946;10.558;2023-04-09T01:44:04;42.03;;;24.30;;
3189;SDS011;1606;51.946;10.558;2023-04-09T01:46:35;38.63;;;23.70;;
3189;SDS011;1606;51.946;10.558;2023-04-09T01:49:05;35.53;;;21.80;;
3189;SDS011;1606;51.946;10.558;2023-04-09T01:51:35;34.80;;;21.47;;
3189;SDS011;1606;51.946;10.558;2023-04-09T01:54:03;35.70;;;22.00;;
3189;SDS011;1606;51.946;10.558;2023-04-09T01:56:41;35.83;;;22.73;;
3189;SDS011;1606;51.946;10.558;2023-04-09T01:59:09;35.50;;;20.70;;
3189;SDS011;1606;51.946;10.558;2023-04-09T02:01:40;37.30;;;19.90;;
3189;SDS011;1606;51.946;10.558;2023-04-09T02:04:19;36.70;;;21.80;;
3189;SDS011;1606;51.946;10.558;2023-04-09T02:06:52;35.07;;;21.40;;
3189;SDS011;1606;51.946;10.558;2023-04-09T02:09:25;34.97;;;20.73;;
3189;SDS011;1606;51.946;10.558;2023-04-09T02:11:57;40.57;;;21.67;;
3189;SDS011;1606;51.946;10.558;2023-04-09T02:14:32;36.80;;;21.97;;
3189;SDS011;1606;51.946;10.558;2023-04-09T02:17:01;33.30;;;19.30;;
3189;SDS011;1606;51.946;10.558;2023-04-09T02:22:15;35.60;;;20.75;;
3189;SDS011;1606;51.946;10.558;2023-04-09T02:24:45;37.73;;;23.33;;
3189;SDS011;1606;51.946;10.558;2023-04-09T02:27:13;36.33;;;21.57;;
3189;SDS011;1606;51.946;10.558;2023-04-09T02:29:49;39.93;;;22.87;;
3189;SDS011;1606;51.946;10.558;2023-04-09T02:32:18;36.80;;;19.33;;
3189;SDS011;1606;51.946;10.558;2023-04-09T02:34:46;33.97;;;19.30;;
3189;SDS011;1606;51.946;10.558;2023-04-09T02:37:15;30.80;;;19.27;;
3189;SDS011;1606;51.946;10.558;2023-04-09T02:39:46;29.77;;;18.57;;
3189;SDS011;1606;51.946;10.558;2023-04-09T02:42:13;33.00;;;19.63;;
3189;SDS011;1606;51.946;10.558;2023-04-09T02:44:41;34.83;;;19.60;;
3189;SDS011;1606;51.946;10.558;2023-04-09T02:47:09;35.33;;;19.60;;
3189;SDS011;1606;51.946;10.558;2023-04-09T02:49:38;37.40;;;20.90;;
3189;SDS011;1606;51.946;10.558;2023-04-09T02:52:06;35.53;;;20.57;;
3189;SDS011;1606;51.946;10.558;2023-04-09T02:54:36;41.17;;;21.60;;
3189;SDS011;1606;51.946;10.558;2023-04-09T02:57:03;37.33;;;22.90;;
3189;SDS011;1606;51.946;10.558;2023-04-09T02:59:31;33.70;;;20.43;;
3189;SDS011;1606;51.946;10.558;2023-04-09T03:02:00;38.70;;;22.17;;
3189;SDS011;1606;51.946;10.558;2023-04-09T03:04:28;36.23;;;23.50;;
3189;SDS011;1606;51.946;10.558;2023-04-09T03:06:57;38.50;;;22.90;;
3189;SDS011;1606;51.946;10.558;2023-04-09T03:09:25;35.97;;;20.70;;
3189;SDS011;1606;51.946;10.558;2023-04-09T03:11:54;33.00;;;20.30;;
3189;SDS011;1606;51.946;10.558;2023-04-09T03:14:22;34.00;;;21.20;;
3189;SDS011;1606;51.946;10.558;2023-04-09T03:16:50;35.40;;;20.40;;
3189;SDS011;1606;51.946;10.558;2023-04-09T03:19:17;38.97;;;22.13;;
3189;SDS011;1606;51.946;10.558;2023-04-09T03:21:45;40.23;;;22.43;;
3189;SDS011;1606;51.946;10.558;2023-04-09T03:24:15;39.47;;;24.63;;
3189;SDS011;1606;51.946;10.558;2023-04-09T03:26:43;43.97;;;24.13;;
3189;SDS011;1606;51.946;10.558;2023-04-09T03:29:11;39.27;;;25.13;;
3189;SDS011;1606;51.946;10.558;2023-04-09T03:31:39;40.60;;;24.60;;
3189;SDS011;1606;51.946;10.558;2023-04-09T03:34:07;41.07;;;25.50;;
3189;SDS011;1606;51.946;10.558;2023-04-09T03:36:35;40.80;;;23.20;;
3189;SDS011;1606;51.946;10.558;2023-04-09T03:39:03;40.50;;;24.87;;
3189;SDS011;1606;51.946;10.558;2023-04-09T03:41:32;38.30;;;22.17;;
3189;SDS011;1606;51.946;10.558;2023-04-09T03:44:00;39.83;;;24.60;;
3189;SDS011;1606;51.946;10.558;2023-04-09T03:46:28;34.10;;;21.27;;
3189;SDS011;1606;51.946;10.558;2023-04-09T03:48:56;42.00;;;22.40;;
3189;SDS011;1606;51.946;10.558;2023-04-09T03:51:23;38.50;;;21.70;;
3189;SDS011;1606;51.946;10.558;2023-04-09T03:53:52;37.10;;;22.97;;
3189;SDS011;1606;51.946;10.558;2023-04-09T03:56:20;37.50;;;22.43;;
3189;SDS011;1606;51.946;10.558;2023-04-09T03:58:49;34.03;;;19.50;;
3189;SDS011;1606;51.946;10.558;2023-04-09T04:01:17;35.10;;;20.53;;
3189;SDS011;1606;51.946;10.558;2023-04-09T04:03:45;37.20;;;20.90;;
3189;SDS011;1606;51.946;10.558;2023-04-09T04:06:13;39.83;;;24.03;;
3189;SDS011;1606;51.946;10.558;2023-04-09T04:08:41;36.70;;;22.27;;
3189;SDS011;1606;51.946;10.558;2023-04-09T04:11:09;37.70;;;20.00;;
3189;SDS011;1606;51.946;10.558;2023-04-09T04:13:37;33.97;;;20.80;;
3189;SDS011;1606;51.946;10.558;2023-04-09T04:16:07;36.20;;;20.70;;
3189;SDS011;1606;51.946;10.558;2023-04-09T04:18:36;37.00;;;22.03;;
3189;SDS011;1606;51.946;10.558;2023-04-09T04:21:04;39.70;;;22.10;;
3189;SDS011;1606;51.946;10.558;2023-04-09T04:23:32;43.33;;;22.27;;
3189;SDS011;1606;51.946;10.558;2023-04-09T04:26:00;45.70;;;24.00;;
3189;SDS011;1606;51.946;10.558;2023-04-09T04:28:28;36.27;;;21.70;;
3189;SDS011;1606;51.946;10.558;2023-04-09T04:30:56;49.53;;;24.10;;
3189;SDS011;1606;51.946;10.558;2023-04-09T04:33:25;37.07;;;22.80;;
3189;SDS011;1606;51.946;10.558;2023-04-09T04:35:53;47.37;;;23.80;;
3189;SDS011;1606;51.946;10.558;2023-04-09T04:38:29;44.70;;;24.77;;
3189;SDS011;1606;51.946;10.558;2023-04-09T04:40:57;42.60;;;23.17;;
3189;SDS011;1606;51.946;10.558;2023-04-09T04:43:25;48.80;;;24.10;;
3189;SDS011;1606;51.946;10.558;2023-04-09T04:45:52;47.27;;;23.87;;
3189;SDS011;1606;51.946;10.558;2023-04-09T04:48:20;48.50;;;25.27;;
3189;SDS011;1606;51.946;10.558;2023-04-09T04:50:54;46.70;;;25.00;;
3189;SDS011;1606;51.946;10.558;2023-04-09T04:53:23;44.83;;;23.20;;
3189;SDS011;1606;51.946;10.558;2023-04-09T04:55:50;45.43;;;22.50;;
3189;SDS011;1606;51.946;10.558;2023-04-09T04:58:19;44.23;;;23.80;;
3189;SDS011;1606;51.946;10.558;2023-04-09T05:00:46;48.03;;;23.80;;
3189;SDS011;1606;51.946;10.558;2023-04-09T05:03:14;45.97;;;24.10;;
3189;SDS011;1606;51.946;10.558;2023-04-09T05:05:42;46.87;;;23.20;;
3189;SDS011;1606;51.946;10.558;2023-04-09T05:08:12;48.80;;;26.43;;
3189;SDS011;1606;51.946;10.558;2023-04-09T05:10:40;44.23;;;22.90;;
3189;SDS011;1606;51.946;10.558;2023-04-09T05:13:08;52.23;;;27.83;;
3189;SDS011;1606;51.946;10.558;2023-04-09T05:15:37;44.03;;;24.07;;
3189;SDS011;1606;51.946;10.558;2023-04-09T05:18:05;48.97;;;24.13;;
3189;SDS011;1606;51.946;10.558;2023-04-09T05:20:33;43.83;;;25.10;;
3189;SDS011;1606;51.946;10.558;2023-04-09T05:23:01;48.40;;;25.87;;
3189;SDS011;1606;51.946;10.558;2023-04-09T05:25:30;46.30;;;25.00;;
3189;SDS011;1606;51.946;10.558;2023-04-09T05:27:58;54.33;;;27.10;;
3189;SDS011;1606;51.946;10.558;2023-04-09T05:30:26;50.17;;;23.17;;
3189;SDS011;1606;51.946;10.558;2023-04-09T05:32:54;47.13;;;26.50;;
3189;SDS011;1606;51.946;10.558;2023-04-09T05:35:21;49.00;;;23.87;;
3189;SDS011;1606;51.946;10.558;2023-04-09T05:37:49;52.05;;;26.67;;
3189;SDS011;1606;51.946;10.558;2023-04-09T05:40:17;56.37;;;26.50;;
3189;SDS011;1606;51.946;10.558;2023-04-09T05:42:46;52.40;;;25.90;;
3189;SDS011;1606;51.946;10.558;2023-04-09T05:45:14;48.67;;;25.80;;
3189;SDS011;1606;51.946;10.558;2023-04-09T05:47:41;50.03;;;26.33;;
3189;SDS011;1606;51.946;10.558;2023-04-09T05:50:09;45.10;;;26.00;;
3189;SDS011;1606;51.946;10.558;2023-04-09T05:52:37;42.23;;;23.60;;
3189;SDS011;1606;51.946;10.558;2023-04-09T05:55:05;46.40;;;26.57;;
3189;SDS011;1606;51.946;10.558;2023-04-09T05:57:34;41.30;;;24.10;;
3189;SDS011;1606;51.946;10.558;2023-04-09T06:00:04;47.30;;;25.80;;
3189;SDS011;1606;51.946;10.558;2023-04-09T06:02:33;46.87;;;25.40;;
3189;SDS011;1606;51.946;10.558;2023-04-09T06:05:01;48.50;;;25.53;;
3189;SDS011;1606;51.946;10.558;2023-04-09T06:07:29;49.37;;;27.43;;
3189;SDS011;1606;51.946;10.558;2023-04-09T06:09:57;50.80;;;26.17;;
3189;SDS011;1606;51.946;10.558;2023-04-09T06:12:24;48.93;;;26.47;;
3189;SDS011;1606;51.946;10.558;2023-04-09T06:14:52;51.27;;;25.90;;
3189;SDS011;1606;51.946;10.558;2023-04-09T06:17:21;45.80;;;24.50;;
3189;SDS011;1606;51.946;10.558;2023-04-09T06:19:49;46.70;;;24.70;;
3189;SDS011;1606;51.946;10.558;2023-04-09T06:22:17;53.13;;;26.77;;
3189;SDS011;1606;51.946;10.558;2023-04-09T06:24:44;46.07;;;25.00;;
3189;SDS011;1606;51.946;10.558;2023-04-09T06:27:12;51.77;;;25.10;;
3189;SDS011;1606;51.946;10.558;2023-04-09T06:29:40;49.87;;;25.80;;
3189;SDS011;1606;51.946;10.558;2023-04-09T06:32:08;54.03;;;26.60;;
3189;SDS011;1606;51.946;10.558;2023-04-09T06:34:37;53.57;;;26.17;;
3189;SDS011;1606;51.946;10.558;2023-04-09T06:37:05;43.50;;;24.63;;
3189;SDS011;1606;51.946;10.558;2023-04-09T06:39:33;45.53;;;25.57;;
3189;SDS011;1606;51.946;10.558;2023-04-09T06:42:01;50.70;;;26.73;;
3189;SDS011;1606;51.946;10.558;2023-04-09T06:44:29;47.00;;;25.00;;
3189;SDS011;1606;51.946;10.558;2023-04-09T06:46:57;50.83;;;26.40;;
3189;SDS011;1606;51.946;10.558;2023-04-09T06:49:25;48.93;;;24.60;;
3189;SDS011;1606;51.946;10.558;2023-04-09T06:51:54;46.80;;;26.23;;
3189;SDS011;1606;51.946;10.558;2023-04-09T06:54:22;52.77;;;26.50;;
3189;SDS011;1606;51.946;10.558;2023-04-09T06:56:50;51.73;;;27.10;;
3189;SDS011;1606;51.946;10.558;2023-04-09T06:59:17;49.00;;;24.80;;
3189;SDS011;1606;51.946;10.558;2023-04-09T07:01:45;45.60;;;25.47;;
3189;SDS011;1606;51.946;10.558;2023-04-09T07:04:13;45.70;;;25.03;;
3189;SDS011;1606;51.946;10.558;2023-04-09T07:06:41;46.67;;;24.10;;
3189;SDS011;1606;51.946;10.558;2023-04-09T07:09:10;38.90;;;23.33;;
3189;SDS011;1606;51.946;10.558;2023-04-09T07:11:38;43.50;;;23.03;;
3189;SDS011;1606;51.946;10.558;2023-04-09T07:14:06;47.90;;;23.93;;
3189;SDS011;1606;51.946;10.558;2023-04-09T07:16:34;45.10;;;25.10;;
3189;SDS011;1606;51.946;10.558;2023-04-09T07:19:01;43.60;;;23.00;;
3189;SDS011;1606;51.946;10.558;2023-04-09T07:21:31;45.07;;;24.50;;
3189;SDS011;1606;51.946;10.558;2023-04-09T07:23:59;46.40;;;23.90;;
3189;SDS011;1606;51.946;10.558;2023-04-09T07:26:28;46.00;;;24.80;;
3189;SDS011;1606;51.946;10.558;2023-04-09T07:28:56;42.97;;;24.60;;
3189;SDS011;1606;51.946;10.558;2023-04-09T07:31:24;42.13;;;22.40;;
3189;SDS011;1606;51.946;10.558;2023-04-09T07:33:52;42.43;;;23.43;;
3189;SDS011;1606;51.946;10.558;2023-04-09T07:36:20;41.60;;;23.93;;
3189;SDS011;1606;51.946;10.558;2023-04-09T07:38:48;44.37;;;24.03;;
3189;SDS011;1606;51.946;10.558;2023-04-09T07:41:16;41.77;;;22.87;;
3189;SDS011;1606;51.946;10.558;2023-04-09T07:43:45;45.20;;;23.70;;
3189;SDS011;1606;51.946;10.558;2023-04-09T07:46:17;39.93;;;23.10;;
3189;SDS011;1606;51.946;10.558;2023-04-09T07:48:45;41.03;;;23.77;;
3189;SDS011;1606;51.946;10.558;2023-04-09T07:51:14;36.73;;;21.90;;
3189;SDS011;1606;51.946;10.558;2023-04-09T07:53:42;39.63;;;23.30;;
3189;SDS011;1606;51.946;10.558;2023-04-09T07:56:13;43.60;;;22.80;;
3189;SDS011;1606;51.946;10.558;2023-04-09T07:58:41;38.60;;;23.30;;
3189;SDS011;1606;51.946;10.558;2023-04-09T08:01:11;38.57;;;22.50;;
3189;SDS011;1606;51.946;10.558;2023-04-09T08:03:38;43.00;;;24.07;;
3189;SDS011;1606;51.946;10.558;2023-04-09T08:06:06;43.55;;;25.83;;
3189;SDS011;1606;51.946;10.558;2023-04-09T08:08:34;39.37;;;24.33;;
3189;SDS011;1606;51.946;10.558;2023-04-09T08:11:02;42.20;;;24.33;;
3189;SDS011;1606;51.946;10.558;2023-04-09T08:13:31;39.23;;;22.60;;
3189;SDS011;1606;51.946;10.558;2023-04-09T08:15:59;40.60;;;24.90;;
3189;SDS011;1606;51.946;10.558;2023-04-09T08:18:30;42.33;;;25.07;;
3189;SDS011;1606;51.946;10.558;2023-04-09T08:20:57;42.80;;;25.43;;
3189;SDS011;1606;51.946;10.558;2023-04-09T08:23:30;43.47;;;25.23;;
3189;SDS011;1606;51.946;10.558;2023-04-09T08:25:57;43.90;;;25.37;;
3189;SDS011;1606;51.946;10.558;2023-04-09T08:28:25;44.77;;;27.03;;
3189;SDS011;1606;51.946;10.558;2023-04-09T08:30:53;42.80;;;26.87;;
3189;SDS011;1606;51.946;10.558;2023-04-09T08:33:21;40.83;;;24.90;;
3189;SDS011;1606;51.946;10.558;2023-04-09T08:35:50;47.47;;;24.50;;
3189;SDS011;1606;51.946;10.558;2023-04-09T08:38:18;47.67;;;27.47;;
3189;SDS011;1606;51.946;10.558;2023-04-09T08:40:46;43.57;;;25.00;;
3189;SDS011;1606;51.946;10.558;2023-04-09T08:43:14;44.30;;;25.43;;
3189;SDS011;1606;51.946;10.558;2023-04-09T08:45:43;42.20;;;24.70;;
3189;SDS011;1606;51.946;10.558;2023-04-09T08:48:11;41.87;;;25.47;;
3189;SDS011;1606;51.946;10.558;2023-04-09T08:50:41;41.43;;;23.63;;
3189;SDS011;1606;51.946;10.558;2023-04-09T08:53:12;42.57;;;25.03;;
3189;SDS011;1606;51.946;10.558;2023-04-09T08:55:43;41.70;;;25.93;;
3189;SDS011;1606;51.946;10.558;2023-04-09T08:58:11;45.23;;;27.27;;
3189;SDS011;1606;51.946;10.558;2023-04-09T09:00:39;45.50;;;26.73;;
3189;SDS011;1606;51.946;10.558;2023-04-09T09:03:08;42.63;;;26.20;;
3189;SDS011;1606;51.946;10.558;2023-04-09T09:05:38;39.77;;;24.03;;
3189;SDS011;1606;51.946;10.558;2023-04-09T09:08:07;48.97;;;27.00;;
3189;SDS011;1606;51.946;10.558;2023-04-09T09:10:37;39.63;;;25.83;;
3189;SDS011;1606;51.946;10.558;2023-04-09T09:13:15;48.87;;;27.03;;
3189;SDS011;1606;51.946;10.558;2023-04-09T09:15:43;39.97;;;26.13;;
3189;SDS011;1606;51.946;10.558;2023-04-09T09:18:12;39.70;;;24.60;;
3189;SDS011;1606;51.946;10.558;2023-04-09T09:20:40;45.03;;;26.40;;
3189;SDS011;1606;51.946;10.558;2023-04-09T09:23:08;35.97;;;23.83;;
3189;SDS011;1606;51.946;10.558;2023-04-09T09:25:40;38.40;;;22.60;;
3189;SDS011;1606;51.946;10.558;2023-04-09T09:28:08;36.33;;;22.90;;
3189;SDS011;1606;51.946;10.558;2023-04-09T09:30:37;36.33;;;21.33;;
3189;SDS011;1606;51.946;10.558;2023-04-09T09:33:07;38.30;;;22.80;;
3189;SDS011;1606;51.946;10.558;2023-04-09T09:35:45;38.17;;;22.87;;
3189;SDS011;1606;51.946;10.558;2023-04-09T09:38:15;37.87;;;23.27;;
3189;SDS011;1606;51.946;10.558;2023-04-09T09:40:44;37.83;;;24.50;;
3189;SDS011;1606;51.946;10.558;2023-04-09T09:43:13;38.03;;;24.70;;
3189;SDS011;1606;51.946;10.558;2023-04-09T09:45:41;33.67;;;22.10;;
3189;SDS011;1606;51.946;10.558;2023-04-09T09:48:10;37.77;;;25.07;;
3189;SDS011;1606;51.946;10.558;2023-04-09T09:50:39;36.37;;;23.43;;
3189;SDS011;1606;51.946;10.558;2023-04-09T09:53:08;37.10;;;24.80;;
3189;SDS011;1606;51.946;10.558;2023-04-09T09:55:38;33.17;;;22.47;;
3189;SDS011;1606;51.946;10.558;2023-04-09T09:58:11;41.43;;;25.20;;
3189;SDS011;1606;51.946;10.558;2023-04-09T10:00:43;38.50;;;23.20;;
3189;SDS011;1606;51.946;10.558;2023-04-09T10:03:16;35.57;;;21.93;;
3189;SDS011;1606;51.946;10.558;2023-04-09T10:05:47;37.80;;;24.67;;
3189;SDS011;1606;51.946;10.558;2023-04-09T10:08:16;33.93;;;22.50;;
3189;SDS011;1606;51.946;10.558;2023-04-09T10:10:44;36.30;;;25.57;;
3189;SDS011;1606;51.946;10.558;2023-04-09T10:13:16;35.97;;;24.83;;
3189;SDS011;1606;51.946;10.558;2023-04-09T10:15:50;35.60;;;23.40;;
3189;SDS011;1606;51.946;10.558;2023-04-09T10:18:19;35.87;;;24.53;;
3189;SDS011;1606;51.946;10.558;2023-04-09T10:20:48;33.43;;;21.33;;
3189;SDS011;1606;51.946;10.558;2023-04-09T10:23:23;37.43;;;22.83;;
3189;SDS011;1606;51.946;10.558;2023-04-09T10:25:59;32.90;;;22.60;;
3189;SDS011;1606;51.946;10.558;2023-04-09T10:28:29;32.93;;;21.57;;
3189;SDS011;1606;51.946;10.558;2023-04-09T10:30:58;29.70;;;19.27;;
3189;SDS011;1606;51.946;10.558;2023-04-09T10:33:26;32.83;;;22.00;;
3189;SDS011;1606;51.946;10.558;2023-04-09T10:35:58;33.57;;;22.90;;
3189;SDS011;1606;51.946;10.558;2023-04-09T10:38:33;34.87;;;22.03;;
3189;SDS011;1606;51.946;10.558;2023-04-09T10:41:06;36.73;;;23.87;;
3189;SDS011;1606;51.946;10.558;2023-04-09T10:43:40;29.50;;;20.93;;
3189;SDS011;1606;51.946;10.558;2023-04-09T10:51:38;31.97;;;19.47;;
3189;SDS011;1606;51.946;10.558;2023-04-09T10:57:09;31.40;;;20.13;;
3189;SDS011;1606;51.946;10.558;2023-04-09T10:59:40;31.70;;;20.50;;
3189;SDS011;1606;51.946;10.558;2023-04-09T11:02:16;31.67;;;21.33;;
3189;SDS011;1606;51.946;10.558;2023-04-09T11:05:05;28.93;;;19.60;;
3189;SDS011;1606;51.946;10.558;2023-04-09T11:07:46;30.80;;;20.23;;
3189;SDS011;1606;51.946;10.558;2023-04-09T11:10:18;30.10;;;19.83;;
3189;SDS011;1606;51.946;10.558;2023-04-09T11:12:46;27.10;;;18.90;;
3189;SDS011;1606;51.946;10.558;2023-04-09T11:15:16;25.77;;;19.10;;
3189;SDS011;1606;51.946;10.558;2023-04-09T11:17:44;24.63;;;16.37;;
3189;SDS011;1606;51.946;10.558;2023-04-09T11:20:13;26.23;;;16.33;;
3189;SDS011;1606;51.946;10.558;2023-04-09T11:22:42;25.10;;;16.63;;
3189;SDS011;1606;51.946;10.558;2023-04-09T11:25:16;22.63;;;14.73;;
3189;SDS011;1606;51.946;10.558;2023-04-09T11:27:44;27.70;;;16.40;;
3189;SDS011;1606;51.946;10.558;2023-04-09T11:30:13;24.00;;;17.00;;
3189;SDS011;1606;51.946;10.558;2023-04-09T11:32:42;26.17;;;16.23;;
3189;SDS011;1606;51.946;10.558;2023-04-09T11:35:11;23.57;;;17.23;;
3189;SDS011;1606;51.946;10.558;2023-04-09T11:37:41;22.67;;;15.13;;
3189;SDS011;1606;51.946;10.558;2023-04-09T11:40:16;26.10;;;15.80;;
3189;SDS011;1606;51.946;10.558;2023-04-09T11:42:45;22.30;;;15.13;;
3189;SDS011;1606;51.946;10.558;2023-04-09T11:45:16;29.20;;;17.30;;
3189;SDS011;1606;51.946;10.558;2023-04-09T11:47:46;26.13;;;16.30;;
3189;SDS011;1606;51.946;10.558;2023-04-09T11:50:14;23.00;;;14.83;;
3189;SDS011;1606;51.946;10.558;2023-04-09T11:52:43;24.20;;;15.60;;
3189;SDS011;1606;51.946;10.558;2023-04-09T11:55:20;22.43;;;15.10;;
3189;SDS011;1606;51.946;10.558;2023-04-09T11:57:51;20.70;;;14.33;;
3189;SDS011;1606;51.946;10.558;2023-04-09T12:00:20;22.83;;;16.00;;
3189;SDS011;1606;51.946;10.558;2023-04-09T12:02:57;23.10;;;13.93;;
3189;SDS011;1606;51.946;10.558;2023-04-09T12:05:28;20.40;;;13.03;;
3189;SDS011;1606;51.946;10.558;2023-04-09T12:07:57;24.43;;;15.20;;
3189;SDS011;1606;51.946;10.558;2023-04-09T12:10:27;20.93;;;14.53;;
3189;SDS011;1606;51.946;10.558;2023-04-09T12:12:59;24.50;;;15.67;;
3189;SDS011;1606;51.946;10.558;2023-04-09T12:15:30;21.07;;;14.40;;
3189;SDS011;1606;51.946;10.558;2023-04-09T12:18:00;19.47;;;13.33;;
3189;SDS011;1606;51.946;10.558;2023-04-09T12:20:30;19.90;;;13.60;;
3189;SDS011;1606;51.946;10.558;2023-04-09T12:23:01;19.70;;;13.27;;
3189;SDS011;1606;51.946;10.558;2023-04-09T12:25:30;21.87;;;14.27;;
3189;SDS011;1606;51.946;10.558;2023-04-09T12:27:58;20.33;;;13.80;;
3189;SDS011;1606;51.946;10.558;2023-04-09T12:30:26;21.20;;;15.10;;
3189;SDS011;1606;51.946;10.558;2023-04-09T12:32:54;19.90;;;13.43;;
3189;SDS011;1606;51.946;10.558;2023-04-09T12:35:23;23.10;;;14.87;;
3189;SDS011;1606;51.946;10.558;2023-04-09T12:37:52;20.67;;;13.63;;
3189;SDS011;1606;51.946;10.558;2023-04-09T12:40:20;17.23;;;12.40;;
3189;SDS011;1606;51.946;10.558;2023-04-09T12:42:48;19.90;;;13.50;;
3189;SDS011;1606;51.946;10.558;2023-04-09T12:45:16;18.13;;;12.80;;
3189;SDS011;1606;51.946;10.558;2023-04-09T12:47:45;19.83;;;12.57;;
3189;SDS011;1606;51.946;10.558;2023-04-09T12:50:13;17.67;;;12.70;;
3189;SDS011;1606;51.946;10.558;2023-04-09T12:52:43;18.00;;;12.93;;
3189;SDS011;1606;51.946;10.558;2023-04-09T12:55:11;18.80;;;12.43;;
3189;SDS011;1606;51.946;10.558;2023-04-09T12:57:41;17.10;;;12.40;;
3189;SDS011;1606;51.946;10.558;2023-04-09T13:00:10;19.70;;;13.17;;
3189;SDS011;1606;51.946;10.558;2023-04-09T13:02:39;19.07;;;11.90;;
3189;SDS011;1606;51.946;10.558;2023-04-09T13:05:07;19.70;;;12.97;;
3189;SDS011;1606;51.946;10.558;2023-04-09T13:07:35;17.13;;;12.27;;
3189;SDS011;1606;51.946;10.558;2023-04-09T13:10:04;19.33;;;12.90;;
3189;SDS011;1606;51.946;10.558;2023-04-09T13:12:32;17.90;;;12.30;;
3189;SDS011;1606;51.946;10.558;2023-04-09T13:15:00;19.17;;;12.03;;
3189;SDS011;1606;51.946;10.558;2023-04-09T13:17:28;16.93;;;11.50;;
3189;SDS011;1606;51.946;10.558;2023-04-09T13:19:56;20.37;;;12.60;;
3189;SDS011;1606;51.946;10.558;2023-04-09T13:22:24;20.93;;;13.93;;
3189;SDS011;1606;51.946;10.558;2023-04-09T13:24:52;17.77;;;12.57;;
3189;SDS011;1606;51.946;10.558;2023-04-09T13:27:21;21.33;;;14.50;;
3189;SDS011;1606;51.946;10.558;2023-04-09T13:29:49;20.37;;;13.70;;
3189;SDS011;1606;51.946;10.558;2023-04-09T13:32:17;20.73;;;14.40;;
3189;SDS011;1606;51.946;10.558;2023-04-09T13:34:46;20.47;;;14.47;;
3189;SDS011;1606;51.946;10.558;2023-04-09T13:37:14;21.13;;;15.43;;
3189;SDS011;1606;51.946;10.558;2023-04-09T13:39:43;25.10;;;13.97;;
3189;SDS011;1606;51.946;10.558;2023-04-09T13:42:11;17.87;;;12.97;;
3189;SDS011;1606;51.946;10.558;2023-04-09T13:44:42;20.53;;;14.47;;
3189;SDS011;1606;51.946;10.558;2023-04-09T13:47:10;19.80;;;14.27;;
3189;SDS011;1606;51.946;10.558;2023-04-09T13:49:38;22.40;;;16.00;;
3189;SDS011;1606;51.946;10.558;2023-04-09T13:52:07;21.50;;;15.00;;
3189;SDS011;1606;51.946;10.558;2023-04-09T13:54:35;23.63;;;16.20;;
3189;SDS011;1606;51.946;10.558;2023-04-09T13:57:03;24.20;;;14.83;;
3189;SDS011;1606;51.946;10.558;2023-04-09T13:59:31;20.90;;;14.43;;
3189;SDS011;1606;51.946;10.558;2023-04-09T14:02:00;23.07;;;15.67;;
3189;SDS011;1606;51.946;10.558;2023-04-09T14:04:28;21.90;;;14.57;;
3189;SDS011;1606;51.946;10.558;2023-04-09T14:06:56;22.37;;;15.20;;
3189;SDS011;1606;51.946;10.558;2023-04-09T14:09:24;22.97;;;15.63;;
3189;SDS011;1606;51.946;10.558;2023-04-09T14:11:51;26.03;;;17.37;;
3189;SDS011;1606;51.946;10.558;2023-04-09T14:14:21;23.53;;;16.83;;
3189;SDS011;1606;51.946;10.558;2023-04-09T14:16:49;22.70;;;15.77;;
3189;SDS011;1606;51.946;10.558;2023-04-09T14:19:18;21.10;;;16.17;;
3189;SDS011;1606;51.946;10.558;2023-04-09T14:21:45;23.00;;;15.90;;
3189;SDS011;1606;51.946;10.558;2023-04-09T14:24:13;24.60;;;16.60;;
3189;SDS011;1606;51.946;10.558;2023-04-09T14:26:41;26.53;;;16.43;;
3189;SDS011;1606;51.946;10.558;2023-04-09T14:29:09;24.23;;;16.50;;
3189;SDS011;1606;51.946;10.558;2023-04-09T14:31:36;25.40;;;16.17;;
3189;SDS011;1606;51.946;10.558;2023-04-09T14:34:07;25.33;;;17.00;;
3189;SDS011;1606;51.946;10.558;2023-04-09T14:36:36;25.73;;;18.57;;
3189;SDS011;1606;51.946;10.558;2023-04-09T14:39:04;25.03;;;16.70;;
3189;SDS011;1606;51.946;10.558;2023-04-09T14:41:31;22.67;;;15.77;;
3189;SDS011;1606;51.946;10.558;2023-04-09T14:44:01;26.37;;;18.90;;
3189;SDS011;1606;51.946;10.558;2023-04-09T14:46:29;27.60;;;19.00;;
3189;SDS011;1606;51.946;10.558;2023-04-09T14:48:58;24.07;;;16.33;;
3189;SDS011;1606;51.946;10.558;2023-04-09T14:51:26;27.17;;;18.87;;
3189;SDS011;1606;51.946;10.558;2023-04-09T14:53:56;23.77;;;17.30;;
3189;SDS011;1606;51.946;10.558;2023-04-09T14:56:24;23.60;;;17.03;;